Impacts TAF Board INFO
FOR SITUATIONAL AWARENESS. NOT TO BE USED FOR FLIGHT PLANNING PURPOSES.
IDs:

KTPA - Tampa Intl Arpt, FL, US

Issued at 0901 UTC 23 May 2018
Updated at 1112 UTC 23 May 2018
Potential Impact None Slight Moderate High
Time<<24/00Z 24/01Z 24/02Z 24/03Z 24/04Z 24/05Z 24/06Z 24/07Z 24/08Z 24/09Z 24/10Z 24/11Z 24/12Z>>
Type PRVL PRVL PRVL PRVL PRVL PRVL PRVL PRVL PRVL PRVL PRVL PRVL
VIS >6 >6 >6 >6 >6 >6 >6 >6 >6 >6 >6 >6
CIG 250 250 -- -- -- -- -- -- -- -- -- --
Cover BKN BKN SCT SCT SCT SCT SCT SCT SCT SCT SCT SCT
FltCat VFR VFR VFR VFR VFR VFR VFR VFR VFR VFR VFR VFR
WX VCTS VCTS -- -- -- -- -- -- -- -- -- --
WDir 310 310 VRB VRB VRB VRB VRB VRB VRB VRB VRB VRB
WSpd 8 8 4 4 4 4 4 4 4 4 4 4
WGst -- -- -- -- -- -- -- -- -- -- -- --

Raw TAF
KTPA 230901Z 2309/2412 VRB03KT P6SM FEW070
  FM231400 12006KT P6SM SCT015 SCT250
  FM231700 22007KT P6SM SCT030 SCT250
  FM232100 31008KT P6SM VCTS SCT035CB SCT100 BKN250
  FM240200 VRB04KT P6SM SCT040 SCT100 SCT250


METAR Board
Radar Display
Forecast Discussion

FOR SITUATIONAL AWARENESS. NOT TO BE USED FOR FLIGHT PLANNING PURPOSES.